地図

経路データ

SID SEASON NUMBER BASIN SUBBASIN NAME ISO_TIME NATURE LAT LON WMO_WIND WMO_PRES WMO_AGENCY TRACK_TYPE DIST2LAND LANDFALL IFLAG USA_AGENCY USA_ATCF_ID USA_LAT USA_LON USA_RECORD USA_STATUS USA_WIND USA_PRES USA_SSHS USA_R34_NE USA_R34_SE USA_R34_SW USA_R34_NW USA_R50_NE USA_R50_SE USA_R50_SW USA_R50_NW USA_R64_NE USA_R64_SE USA_R64_SW USA_R64_NW USA_POCI USA_ROCI USA_RMW USA_EYE TOKYO_LAT TOKYO_LON TOKYO_GRADE TOKYO_WIND TOKYO_PRES TOKYO_R50_DIR TOKYO_R50_LONG TOKYO_R50_SHORT TOKYO_R30_DIR TOKYO_R30_LONG TOKYO_R30_SHORT TOKYO_LAND CMA_LAT CMA_LON CMA_CAT CMA_WIND CMA_PRES HKO_LAT HKO_LON HKO_CAT HKO_WIND HKO_PRES NEWDELHI_LAT NEWDELHI_LON NEWDELHI_GRADE NEWDELHI_WIND NEWDELHI_PRES NEWDELHI_CI NEWDELHI_DP NEWDELHI_POCI REUNION_LAT REUNION_LON REUNION_TYPE REUNION_WIND REUNION_PRES REUNION_TNUM REUNION_CI REUNION_RMW REUNION_R34_NE REUNION_R34_SE REUNION_R34_SW REUNION_R34_NW REUNION_R50_NE REUNION_R50_SE REUNION_R50_SW REUNION_R50_NW REUNION_R64_NE REUNION_R64_SE REUNION_R64_SW REUNION_R64_NW BOM_LAT BOM_LON BOM_TYPE BOM_WIND BOM_PRES BOM_TNUM BOM_CI BOM_RMW BOM_R34_NE BOM_R34_SE BOM_R34_SW BOM_R34_NW BOM_R50_NE BOM_R50_SE BOM_R50_SW BOM_R50_NW BOM_R64_NE BOM_R64_SE BOM_R64_SW BOM_R64_NW BOM_ROCI BOM_POCI BOM_EYE BOM_POS_METHOD BOM_PRES_METHOD NADI_LAT NADI_LON NADI_CAT NADI_WIND NADI_PRES WELLINGTON_LAT WELLINGTON_LON WELLINGTON_WIND WELLINGTON_PRES DS824_LAT DS824_LON DS824_STAGE DS824_WIND DS824_PRES TD9636_LAT TD9636_LON TD9636_STAGE TD9636_WIND TD9636_PRES TD9635_LAT TD9635_LON TD9635_WIND TD9635_PRES TD9635_ROCI NEUMANN_LAT NEUMANN_LON NEUMANN_CLASS NEUMANN_WIND NEUMANN_PRES MLC_LAT MLC_LON MLC_CLASS MLC_WIND MLC_PRES USA_GUST BOM_GUST BOM_GUST_PER REUNION_GUST REUNION_GUST_PER USA_SEAHGT USA_SEARAD_NE USA_SEARAD_SE USA_SEARAD_SW USA_SEARAD_NW STORM_SPEED STORM_DIR
1946204N17147 1946 41 WP MM JANIE 1946-07-23 00:00:00 TS 17.0000 147.000 main 2119 2074 O________OOO__ jtwc_wp WP071946 17.0000 147.000 40 0 17.0000 147.000 TC 40 17.0000 147.000 2 40 17.0000 147.000 40 995 360 11 309
1946204N17147 1946 41 WP MM JANIE 1946-07-23 03:00:00 TS 17.3528 146.546 main 2060 2016 P________PPP__ WP071946 17.3478 146.533 55 0 17.3478 146.533 TC 55 17.3679 146.587 2 50 17.3478 146.533 55 987 330 11 310
1946204N17147 1946 41 WP MM JANIE 1946-07-23 06:00:00 TS 17.7071 146.120 main 2016 1975 O________OPO__ jtwc_wp WP071946 17.7000 146.100 70 1 17.7000 146.100 TC 70 17.7283 146.179 2 60 17.7000 146.100 70 980 300 10 313
1946204N17147 1946 41 WP MM JANIE 1946-07-23 09:00:00 TS 18.0617 145.741 main 1961 1920 P________PPP__ WP071946 18.0574 145.727 75 1 18.0574 145.727 TC 75 18.0745 145.781 2 70 18.0574 145.727 75 976 270 10 315
1946204N17147 1946 41 WP MM JANIE 1946-07-23 12:00:00 TS 18.4000 145.400 main 1920 1880 O________OOO__ jtwc_wp WP071946 18.4000 145.400 80 1 18.4000 145.400 TC 80 18.4000 145.400 3 80 18.4000 145.400 80 972 240 9 316
1946204N17147 1946 41 WP MM JANIE 1946-07-23 15:00:00 TS 18.7060 145.085 main 1880 1839 P________PPP__ WP071946 18.7074 145.100 80 1 18.7074 145.100 TC 80 18.7019 145.041 3 82 18.7074 145.100 80 970 240 8 315
1946204N17147 1946 41 WP MM JANIE 1946-07-23 18:00:00 TS 18.9981 144.776 main 1839 1790 O________OPO__ jtwc_wp WP071946 19.0000 144.800 80 1 19.0000 144.800 TC 80 18.9922 144.704 3 85 19.0000 144.800 80 968 240 9 314
1946204N17147 1946 41 WP MM JANIE 1946-07-23 21:00:00 TS 19.2966 144.430 main 1790 1746 P________PPP__ WP071946 19.3001 144.443 85 2 19.3001 144.443 TC 85 19.2864 144.391 3 87 19.3001 144.443 85 966 270 9 313
1946204N17147 1946 41 WP MM JANIE 1946-07-24 00:00:00 TS 19.6000 144.100 main 1746 1702 O________OOO__ jtwc_wp WP071946 19.6000 144.100 90 2 19.6000 144.100 TC 90 19.6000 144.100 4 90 19.6000 144.100 90 965 300 8 317
1946204N17147 1946 41 WP MM JANIE 1946-07-24 03:00:00 TS 19.8892 143.834 main 1702 1663 P________PPP__ WP071946 19.8774 143.835 90 2 19.8774 143.835 TC 90 19.9247 143.832 4 90 19.8774 143.835 90 963 330 8 322
1946204N17147 1946 41 WP MM JANIE 1946-07-24 06:00:00 TS 20.2187 143.596 main 1663 1613 O________OPO__ jtwc_wp WP071946 20.2000 143.600 90 2 20.2000 143.600 TC 90 20.2746 143.584 4 90 20.2000 143.600 90 962 360 9 328
1946204N17147 1946 41 WP MM JANIE 1946-07-24 09:00:00 TS 20.6362 143.337 main 1609 1549 P________PPP__ WP071946 20.6275 143.335 90 2 20.6275 143.335 TC 90 20.6623 143.344 4 90 20.6275 143.335 90 961 390 10 332
1946204N17147 1946 41 WP MM JANIE 1946-07-24 12:00:00 TS 21.1000 143.100 main 1549 1500 O________OOO__ jtwc_wp WP071946 21.1000 143.100 90 2 21.1000 143.100 TC 90 21.1000 143.100 4 90 21.1000 143.100 90 960 420 10 338
1946204N17147 1946 41 WP MM JANIE 1946-07-24 15:00:00 TS 21.5438 142.941 main 1500 1446 P________PPP__ WP071946 21.5198 142.972 90 2 21.5198 142.972 TC 90 21.6157 142.848 4 90 21.5198 142.972 90 959 450 10 341
1946204N17147 1946 41 WP MM JANIE 1946-07-24 18:00:00 TS 22.0443 142.747 main 1441 1367 O________OPO__ jtwc_wp WP071946 22.0000 142.800 90 2 22.0000 142.800 TC 90 22.1771 142.587 4 90 22.0000 142.800 90 958 480 12 336
1946204N17147 1946 41 WP MM JANIE 1946-07-24 21:00:00 TS 22.6695 142.405 main 1357 1279 P________PPP__ WP071946 22.6426 142.438 90 2 22.6426 142.438 TC 90 22.7500 142.307 4 90 22.6426 142.438 90 956 480 14 331
1946204N17147 1946 41 WP MM JANIE 1946-07-25 00:00:00 TS 23.3000 142.000 main 1279 1211 O________OOO__ jtwc_wp WP071946 23.3000 142.000 90 2 23.3000 142.000 TC 90 23.3000 142.000 4 90 23.3000 142.000 90 955 480 14 328
1946204N17147 1946 41 WP MM JANIE 1946-07-25 03:00:00 TS 23.8359 141.610 main 1211 1143 P________PPP__ WP071946 23.8374 141.592 95 2 23.8374 141.592 TC 95 23.8314 141.662 4 92 23.8374 141.592 95 953 480 12 325
1946204N17147 1946 41 WP MM JANIE 1946-07-25 06:00:00 TS 24.3068 141.224 main 1143 1089 O________OPO__ jtwc_wp WP071946 24.3000 141.200 100 3 24.3000 141.200 TC 100 24.3272 141.296 4 95 24.3000 141.200 100 952 480 11 324
1946204N17147 1946 41 WP MM JANIE 1946-07-25 09:00:00 TS 24.7540 140.870 main 1079 1031 P________PPP__ WP071946 24.7522 140.857 100 3 24.7522 140.857 TC 100 24.7594 140.906 4 97 24.7522 140.857 100 951 450 10 320
1946204N17147 1946 41 WP MM JANIE 1946-07-25 12:00:00 TS 25.1000 140.500 main 1031 994 O________OOO__ jtwc_wp WP071946 25.1000 140.500 100 3 25.1000 140.500 TC 100 25.1000 140.500 4 100 25.1000 140.500 100 950 420 9 307
1946204N17147 1946 41 WP MM JANIE 1946-07-25 15:00:00 TS 25.3019 140.065 main 994 965 P________PPP__ WP071946 25.2950 140.057 100 3 25.2950 140.057 TC 100 25.3223 140.088 4 100 25.2950 140.057 100 949 420 9 291
1946204N17147 1946 41 WP MM JANIE 1946-07-25 18:00:00 TS 25.4137 139.616 main 965 940 O________OPO__ jtwc_wp WP071946 25.4000 139.600 100 3 25.4000 139.600 TC 100 25.4547 139.663 4 100 25.4000 139.600 100 949 420 8 285
1946204N17147 1946 41 WP MM JANIE 1946-07-25 21:00:00 TS 25.5086 139.202 main 940 917 P________PPP__ WP071946 25.4998 139.192 100 3 25.4998 139.192 TC 100 25.5348 139.232 4 100 25.4998 139.192 100 948 450 8 284
1946204N17147 1946 41 WP MM JANIE 1946-07-26 00:00:00 TS 25.6000 138.800 main 917 895 O________OOO__ jtwc_wp WP071946 25.6000 138.800 100 3 25.6000 138.800 TC 100 25.6000 138.800 4 100 25.6000 138.800 100 948 480 8 288
1946204N17147 1946 41 WP MM JANIE 1946-07-26 03:00:00 TS 25.7445 138.406 main 895 863 P________PPP__ WP071946 25.7573 138.408 100 3 25.7573 138.408 TC 100 25.7062 138.403 4 100 25.7573 138.408 100 947 450 8 291
1946204N17147 1946 41 WP MM JANIE 1946-07-26 06:00:00 TS 25.8765 138.000 main 863 854 O________OPO__ jtwc_wp WP071946 25.9000 138.000 100 3 25.9000 138.000 TC 100 25.8060 138.002 4 100 25.9000 138.000 100 947 420 8 285
1946204N17147 1946 41 WP MM JANIE 1946-07-26 09:00:00 TS 25.9435 137.584 main 854 819 P________PPP__ WP071946 25.9571 137.587 100 3 25.9571 137.587 TC 100 25.9028 137.575 4 100 25.9571 137.587 100 946 390 8 279
1946204N17147 1946 41 WP MM JANIE 1946-07-26 12:00:00 TS 26.0000 137.100 main 819 772 O________OOO__ jtwc_wp WP071946 26.0000 137.100 100 3 26.0000 137.100 TC 100 26.0000 137.100 4 100 26.0000 137.100 100 946 360 10 279
1946204N17147 1946 41 WP MM JANIE 1946-07-26 15:00:00 TS 26.0927 136.481 main 772 726 P________PPP__ WP071946 26.0928 136.465 100 3 26.0928 136.465 TC 100 26.0926 136.530 4 95 26.0928 136.465 100 946 360 12 280
1946204N17147 1946 41 WP MM JANIE 1946-07-26 18:00:00 TS 26.1965 135.829 main 721 683 O________OPO__ jtwc_wp WP071946 26.2000 135.800 100 3 26.2000 135.800 TC 100 26.1861 135.915 4 90 26.2000 135.800 100 946 360 11 280
1946204N17147 1946 41 WP MM JANIE 1946-07-26 21:00:00 TS 26.2852 135.238 main 678 643 P________PPP__ WP071946 26.2848 135.220 90 2 26.2848 135.220 TC 90 26.2863 135.292 4 85 26.2848 135.220 90 948 330 10 281
1946204N17147 1946 41 WP MM JANIE 1946-07-27 00:00:00 TS 26.4000 134.700 main 643 603 O________OOO__ jtwc_wp WP071946 26.4000 134.700 80 1 26.4000 134.700 TC 80 26.4000 134.700 4 80 26.4000 134.700 80 950 300 10 288
1946204N17147 1946 41 WP MM JANIE 1946-07-27 03:00:00 TS 26.5813 134.230 main 597 557 P________PPP__ WP071946 26.5996 134.243 80 1 26.5996 134.243 TC 80 26.5263 134.193 4 80 26.5996 134.243 80 952 300 9 294
1946204N17147 1946 41 WP MM JANIE 1946-07-27 06:00:00 TS 26.7671 133.780 main 557 522 O________OPO__ jtwc_wp WP071946 26.8000 133.800 80 1 26.8000 133.800 TC 80 26.6684 133.719 4 80 26.8000 133.800 80 955 300 9 290
1946204N17147 1946 41 WP MM JANIE 1946-07-27 09:00:00 TS 26.8871 133.301 main 522 490 P________PPP__ WP071946 26.9073 133.315 80 1 26.9073 133.315 TC 80 26.8264 133.261 4 80 26.9073 133.315 80 956 300 9 285
1946204N17147 1946 41 WP MM JANIE 1946-07-27 12:00:00 TS 27.0000 132.800 main 490 462 O________OOO__ jtwc_wp WP071946 27.0000 132.800 80 1 27.0000 132.800 TC 80 27.0000 132.800 4 80 27.0000 132.800 80 957 300 10 284
1946204N17147 1946 41 WP MM JANIE 1946-07-27 15:00:00 TS 27.1280 132.246 main 459 424 P________PPP__ WP071946 27.1275 132.242 80 1 27.1275 132.242 TC 80 27.1294 132.258 4 82 27.1275 132.242 80 956 270 10 287
1946204N17147 1946 41 WP MM JANIE 1946-07-27 18:00:00 TS 27.2953 131.704 main 424 393 O________OPO__ jtwc_wp WP071946 27.3000 131.700 80 1 27.3000 131.700 TC 80 27.2810 131.717 4 85 27.3000 131.700 80 956 240 10 292
1946204N17147 1946 41 WP MM JANIE 1946-07-27 21:00:00 TS 27.4903 131.225 main 393 357 P________PPP__ WP071946 27.4898 131.227 85 2 27.4898 131.227 TC 85 27.4920 131.217 4 87 27.4898 131.227 85 954 240 9 302
1946204N17147 1946 41 WP MM JANIE 1946-07-28 00:00:00 TS 27.8000 130.800 main 357 302 O________OOO__ jtwc_wp WP071946 27.8000 130.800 90 2 27.8000 130.800 TC 90 27.8000 130.800 4 90 27.8000 130.800 90 953 240 11 316
1946204N17147 1946 41 WP MM JANIE 1946-07-28 03:00:00 TS 28.2950 130.359 main 302 252 P________PPP__ WP071946 28.3052 130.333 90 2 28.3052 130.333 TC 90 28.2647 130.435 4 90 28.3052 130.333 90 951 270 13 328
1946204N17147 1946 41 WP MM JANIE 1946-07-28 06:00:00 TS 28.8809 130.041 main 243 194 O________OPO__ jtwc_wp WP071946 28.9000 130.000 90 2 28.9000 130.000 TC 90 28.8238 130.164 4 90 28.9000 130.000 90 950 300 12 341
1946204N17147 1946 41 WP MM JANIE 1946-07-28 09:00:00 TS 29.4481 129.913 main 194 130 P________PPP__ WP071946 29.4571 129.880 90 2 29.4571 129.880 TC 90 29.4210 130.010 4 90 29.4571 129.880 90 949 330 11 358
1946204N17147 1946 41 WP MM JANIE 1946-07-28 12:00:00 TS 30.0000 130.000 main 130 67 O________OOO__ jtwc_wp WP071946 30.0000 130.000 90 2 30.0000 130.000 TC 90 30.0000 130.000 4 90 30.0000 130.000 90 949 360 11 18
1946204N17147 1946 41 WP MM JANIE 1946-07-28 15:00:00 TS 30.5089 130.311 main 67 0 P________PPP__ WP071946 30.5230 130.369 90 2 30.5230 130.369 TC 90 30.4665 130.138 4 90 30.5230 130.369 90 950 330 12 32
1946204N17147 1946 41 WP MM JANIE 1946-07-28 18:00:00 TS 30.9769 130.705 main 0 0 O________OPO__ jtwc_wp WP071946 31.0000 130.800 90 2 31.0000 130.800 TC 90 30.9076 130.418 4 90 31.0000 130.800 90 951 300 10 32
1946204N17147 1946 41 WP MM JANIE 1946-07-28 21:00:00 TS 31.3859 130.948 main 0 0 P________PPP__ WP071946 31.3996 131.001 90 2 31.3996 131.001 TC 90 31.3448 130.790 4 90 31.3996 131.001 90 953 300 9 27
1946204N17147 1946 41 WP MM JANIE 1946-07-29 00:00:00 TS 31.8000 131.200 main 0 0 O________OOO__ jtwc_wp WP071946 31.8000 131.200 90 2 31.8000 131.200 TC 90 31.8000 131.200 4 90 31.8000 131.200 90 956 300 11 31
1946204N17147 1946 41 WP MM JANIE 1946-07-29 03:00:00 TS 32.2944 131.581 main 9 0 P________PPP__ WP071946 32.2776 131.570 80 1 32.2776 131.570 TC 80 32.3448 131.613 4 85 32.2776 131.570 80 959 300 12 34
1946204N17147 1946 41 WP MM JANIE 1946-07-29 06:00:00 TS 32.8259 132.012 main 9 0 O________OPO__ jtwc_wp WP071946 32.8000 132.000 70 1 32.8000 132.000 TC 70 32.9037 132.049 4 80 32.8000 132.000 70 962 300 13 33
1946204N17147 1946 41 WP MM JANIE 1946-07-29 09:00:00 TS 33.4052 132.443 main 0 0 P________PPP__ WP071946 33.3951 132.437 70 1 33.3951 132.437 TC 70 33.4355 132.460 4 75 33.3951 132.437 70 966 300 13 31
1946204N17147 1946 41 WP MM JANIE 1946-07-29 12:00:00 TS 33.9000 132.800 main 0 0 O________OOO__ jtwc_wp WP071946 33.9000 132.800 70 1 33.9000 132.800 TC 70 33.9000 132.800 4 70 33.9000 132.800 70 970 300 9 32
1946204N17147 1946 41 WP MM JANIE 1946-07-29 15:00:00 TS 34.1644 133.005 main 11 0 P________PPP__ WP071946 34.1298 132.996 60 0 34.1298 132.996 TC 60 34.2683 133.032 4 62 34.1298 132.996 60 975 270 5 30
1946204N17147 1946 41 WP MM JANIE 1946-07-29 18:00:00 TS 34.3513 133.115 main 0 0 O________OPO__ jtwc_wp WP071946 34.3000 133.100 50 0 34.3000 133.100 TC 50 34.5565 133.173 4 55 34.3000 133.100 50 980 240 5 23
1946204N17147 1946 41 WP MM JANIE 1946-07-29 21:00:00 TS 34.5802 133.227 main 0 0 P________PPP__ WP071946 34.5450 133.222 45 0 34.5450 133.222 TC 45 34.7915 133.252 4 47 34.5450 133.222 45 982 210 7 13
1946204N17147 1946 41 WP MM JANIE 1946-07-30 00:00:00 TS 35.0000 133.300 main 0 0 O________OOO__ jtwc_wp WP071946 35.0000 133.300 40 0 35.0000 133.300 TC 40 35.0000 133.300 2 40 35.0000 133.300 40 985 180 13 1
1946204N17147 1946 41 WP MM JANIE 1946-07-30 03:00:00 TS 35.8974 133.274 main 44 44 P________P_P__ WP071946 35.9224 133.264 40 0 35.9224 133.264 TC 40 2 35.7975 133.318 40 986 210 18 359
1946204N17147 1946 41 WP MM JANIE 1946-07-30 06:00:00 TS 36.8000 133.300 main 144 144 O________O_O__ jtwc_wp WP071946 36.8000 133.300 40 0 36.8000 133.300 TC 40 2 36.8000 133.300 40 988 240 12 14
1946204N17147 1946 41 WP MM JANIE 1946-07-30 09:00:00 TS 37.0755 133.650 main 180 172 P________P____ WP071946 37.0755 133.650 40 0 37.0755 133.650 TC 40 2 7 54
1946204N17147 1946 41 WP MM JANIE 1946-07-30 12:00:00 TS 37.2000 134.000 main 181 181 O________O____ jtwc_wp WP071946 37.2000 134.000 40 0 37.2000 134.000 TC 40 5 37
1946204N17147 1946 41 WP MM JANIE 1946-07-30 15:00:00 TS 37.5024 134.053 main 213 213 P________P____ WP071946 37.5024 134.053 40 0 37.5024 134.053 TC 40 8 1
1946204N17147 1946 41 WP MM JANIE 1946-07-30 18:00:00 TS 38.0000 134.000 main 253 253 O________O____ jtwc_wp WP071946 38.0000 134.000 40 0 38.0000 134.000 TC 40 13 0
1946204N17147 1946 41 WP MM JANIE 1946-07-30 21:00:00 TS 38.8125 134.036 main 289 289 P________P____ WP071946 38.8125 134.036 37 0 38.8125 134.036 TC 37 17 0
1946204N17147 1946 41 WP MM JANIE 1946-07-31 00:00:00 TS 39.7000 134.000 main 344 264 O________O____ jtwc_wp WP071946 39.7000 134.000 35 0 39.7000 134.000 TC 35 16 353
1946204N17147 1946 41 WP MM JANIE 1946-07-31 03:00:00 TS 40.4026 133.788 main 264 193 P________P____ WP071946 40.4026 133.788 35 0 40.4026 133.788 TC 35 14 344
1946204N17147 1946 41 WP MM JANIE 1946-07-31 06:00:00 TS 41.0000 133.500 main 193 135 O________O____ jtwc_wp WP071946 41.0000 133.500 35 0 41.0000 133.500 TC 35 12 340
1946204N17147 1946 41 WP MM JANIE 1946-07-31 09:00:00 TS 41.5200 133.238 main 134 77 P________P____ WP071946 41.5200 133.238 32 -1 41.5200 133.238 TC 32 11 339
1946204N17147 1946 41 WP MM JANIE 1946-07-31 12:00:00 TS 42.0000 133.000 main 77 O________O____ jtwc_wp WP071946 42.0000 133.000 30 -1 42.0000 133.000 TC 30 10 340

デジタル台風データ・検索

IBTrACS Databaseについて

本データベースは、米国NOAAが公開する1842年以降の世界の熱帯低気圧のベストトラックデータアーカイブInternational Best Track Archive for Climate Stewardship (IBTrACS)を、ウェブで閲覧しやすい形式に変換したものです。

最終更新日:2021-11-26